Praesel, Texas
Current Conditions -  °F | °C
As of 8:15 AM on Sunday 25 Jan 2015 (Local Time) from KT35 Reporting Station
Clear Clear  
Wind Chill: 42°   Ceiling: Unl
Heat Index: 46°   Visibility: 10mi
Dew Point: 37°   Wind: 7mph
Humidity: 71%   Direction: 260°W
Pressure: 30.04"   Gusts: NA
Location:  30.6499°N, 96.9973°W
Report Text: KT35 251415Z AUTO 26006KT 10SM CLR 08/03 A3004 RMK AO2 T00780029
Loading
Personal Weather Stations






























Interactive Weather Map New forecast layout! Learn more

10-Day Weather Forecast

Advertisements
Track Severe Weather on mobile